createdAt,value
2023-07-04T00:00:50.344Z,100153.19
2023-07-04T00:03:51.860Z,100151.69
2023-07-04T00:10:12.311Z,100154.75
2023-07-04T00:13:13.756Z,100149.94
2023-07-04T00:16:15.209Z,100143.25
2023-07-04T00:19:16.525Z,100148.03
2023-07-04T00:22:17.946Z,100151.34
2023-07-04T00:25:19.327Z,100139.25
2023-07-04T00:28:20.701Z,100136.59
2023-07-04T00:31:22.092Z,100148.03
2023-07-04T00:34:23.499Z,100151.34
2023-07-04T00:37:24.828Z,100152.91
2023-07-04T00:40:26.133Z,100151.44
2023-07-04T00:43:27.448Z,100146.34
2023-07-04T00:46:28.814Z,100140.81
2023-07-04T00:49:30.274Z,100144.47
2023-07-04T00:52:31.572Z,100151.50
2023-07-04T00:55:32.926Z,100149.00
2023-07-04T00:58:34.210Z,100153.41
2023-07-04T01:01:35.548Z,100162.06
2023-07-04T01:04:36.841Z,100162.16
2023-07-04T01:07:38.148Z,100171.19
2023-07-04T01:10:39.465Z,100167.31
2023-07-04T01:13:41.221Z,100162.25
2023-07-04T01:16:42.589Z,100172.84
2023-07-04T01:19:43.914Z,100173.03
2023-07-04T01:22:45.198Z,100171.03
2023-07-04T01:25:46.532Z,100184.44
2023-07-04T01:28:47.826Z,100175.91
2023-07-04T01:31:49.156Z,100185.28
2023-07-04T01:34:50.480Z,100181.97
2023-07-04T01:37:51.827Z,100185.16
2023-07-04T01:40:53.346Z,100200.00
2023-07-04T01:43:54.787Z,100198.59
2023-07-04T01:46:56.127Z,100191.97
2023-07-04T01:49:57.450Z,100195.94
2023-07-04T01:52:58.778Z,100205.41
2023-07-04T01:56:00.090Z,100203.75
2023-07-04T01:59:01.373Z,100203.13
2023-07-04T02:02:02.743Z,100202.47
2023-07-04T02:05:04.092Z,100218.53
2023-07-04T02:08:05.420Z,100209.03
2023-07-04T02:11:06.704Z,100214.22
2023-07-04T02:14:08.521Z,100212.13
2023-07-04T02:17:09.911Z,100210.09
2023-07-04T02:20:11.223Z,100217.13
2023-07-04T02:23:12.478Z,100211.41
2023-07-04T02:26:13.760Z,100217.94
2023-07-04T02:29:15.063Z,100211.41
2023-07-04T02:32:16.373Z,100216.22
2023-07-04T02:35:17.686Z,100212.25
2023-07-04T02:38:18.949Z,100220.13
2023-07-04T02:41:20.268Z,100219.13
2023-07-04T02:44:21.542Z,100219.31
2023-07-04T02:47:22.948Z,100214.84
2023-07-04T02:50:24.394Z,100218.72
2023-07-04T02:53:25.687Z,100217.66
2023-07-04T02:56:26.994Z,100217.09
2023-07-04T02:59:28.244Z,100209.91
2023-07-04T03:02:29.648Z,100204.91
2023-07-04T03:05:31.001Z,100213.06
2023-07-04T03:08:32.321Z,100211.22
2023-07-04T03:11:33.607Z,100212.25
2023-07-04T03:14:34.878Z,100217.94
2023-07-04T03:17:36.268Z,100208.78
2023-07-04T03:20:37.661Z,100214.97
2023-07-04T03:23:41.954Z,100219.47
2023-07-04T03:26:43.223Z,100224.34
2023-07-04T03:29:44.504Z,100223.31
2023-07-04T03:32:45.829Z,100228.66
2023-07-04T03:35:58.001Z,100216.63
2023-07-04T03:38:59.874Z,100224.34
2023-07-04T03:42:01.218Z,100222.50
2023-07-04T03:45:02.579Z,100222.03
2023-07-04T03:48:03.944Z,100223.69
2023-07-04T03:51:05.537Z,100229.53
2023-07-04T03:54:06.911Z,100235.84
2023-07-04T03:57:08.181Z,100244.00
2023-07-04T04:00:09.496Z,100239.50
2023-07-04T04:03:10.892Z,100256.03
2023-07-04T04:06:12.464Z,100252.72
2023-07-04T04:09:13.761Z,100254.06
2023-07-04T04:12:15.076Z,100260.72
2023-07-04T04:15:16.362Z,100273.03
2023-07-04T04:18:17.703Z,100264.28
2023-07-04T04:21:18.987Z,100268.31
2023-07-04T04:24:20.290Z,100262.09
2023-07-04T04:27:21.619Z,100257.88
2023-07-04T04:30:22.929Z,100263.72
2023-07-04T04:33:24.301Z,100272.28
2023-07-04T04:36:25.587Z,100260.91
2023-07-04T04:39:26.874Z,100263.63
2023-07-04T04:42:28.144Z,100263.94
2023-07-04T04:45:29.479Z,100274.06
2023-07-04T04:48:30.803Z,100276.25
2023-07-04T04:51:32.105Z,100278.22
2023-07-04T04:54:33.393Z,100275.22
2023-07-04T04:57:34.692Z,100285.84
2023-07-04T05:00:39.330Z,100287.31
2023-07-04T05:03:40.754Z,100278.94
2023-07-04T05:06:42.051Z,100279.44
2023-07-04T05:09:43.343Z,100288.38
2023-07-04T05:12:44.687Z,100284.38
2023-07-04T05:15:46.089Z,100288.63
2023-07-04T05:18:47.432Z,100295.56
2023-07-04T05:21:48.904Z,100298.06
2023-07-04T05:24:50.217Z,100294.84
2023-07-04T05:27:54.280Z,100295.16
2023-07-04T05:30:55.611Z,100294.56
2023-07-04T05:33:56.917Z,100288.69
2023-07-04T05:36:58.207Z,100285.28
2023-07-04T05:39:59.462Z,100288.44
2023-07-04T05:43:00.766Z,100287.34
2023-07-04T05:46:02.157Z,100299.81
2023-07-04T05:49:03.509Z,100278.69
2023-07-04T05:52:04.804Z,100285.16
2023-07-04T05:55:06.126Z,100287.63
2023-07-04T05:58:07.425Z,100291.44
2023-07-04T06:01:08.777Z,100289.88
2023-07-04T06:04:10.261Z,100295.69
2023-07-04T06:07:11.749Z,100288.66
2023-07-04T06:10:13.177Z,100285.41
2023-07-04T06:13:15.572Z,100293.25
2023-07-04T06:16:17.114Z,100299.09
2023-07-04T06:19:18.578Z,100294.38
2023-07-04T06:22:19.903Z,100298.97
2023-07-04T06:25:21.189Z,100301.84
2023-07-04T06:28:22.458Z,100301.31
2023-07-04T06:31:23.773Z,100301.94
2023-07-04T06:34:25.278Z,100300.91
2023-07-04T06:37:26.627Z,100300.09
2023-07-04T06:40:27.990Z,100300.19
2023-07-04T06:43:29.320Z,100309.88
2023-07-04T06:46:30.685Z,100311.00
2023-07-04T06:49:32.232Z,100314.59
2023-07-04T06:52:33.516Z,100316.19
2023-07-04T06:55:34.857Z,100312.47
2023-07-04T06:58:36.194Z,100315.06
2023-07-04T07:01:37.520Z,100314.13
2023-07-04T07:04:38.854Z,100304.44
2023-07-04T07:07:40.145Z,100309.03
2023-07-04T07:10:41.508Z,100310.25
2023-07-04T07:13:42.888Z,100312.75
2023-07-04T07:16:44.553Z,100317.47
2023-07-04T07:19:45.949Z,100317.28
2023-07-04T07:22:47.279Z,100311.94
2023-07-04T07:25:50.144Z,100316.06
2023-07-04T07:28:51.579Z,100314.69
2023-07-04T07:31:52.953Z,100314.84
2023-07-04T07:34:54.260Z,100310.78
2023-07-04T07:37:55.577Z,100313.22
2023-07-04T07:40:56.913Z,100316.72
2023-07-04T07:43:58.199Z,100323.16
2023-07-04T07:46:59.561Z,100309.13
2023-07-04T07:50:00.872Z,100305.34
2023-07-04T07:53:02.335Z,100305.22
2023-07-04T07:56:03.659Z,100305.22
2023-07-04T07:59:04.969Z,100308.38
2023-07-04T08:02:06.343Z,100300.41
2023-07-04T08:05:07.738Z,100309.84
2023-07-04T08:08:09.210Z,100303.75
2023-07-04T08:11:10.479Z,100307.06
2023-07-04T08:14:11.830Z,100312.69
2023-07-04T08:17:14.358Z,100311.78
2023-07-04T08:20:15.764Z,100308.84
2023-07-04T08:23:17.028Z,100309.41
2023-07-04T08:26:18.335Z,100313.78
2023-07-04T08:29:19.638Z,100311.03
2023-07-04T08:32:21.009Z,100311.69
2023-07-04T08:35:22.370Z,100312.38
2023-07-04T08:38:23.739Z,100314.81
2023-07-04T08:41:24.996Z,100310.47
2023-07-04T08:44:26.324Z,100314.50
2023-07-04T08:47:27.648Z,100303.38
2023-07-04T08:50:29.025Z,100297.47
2023-07-04T08:53:30.370Z,100311.44
2023-07-04T08:56:31.720Z,100303.03
2023-07-04T08:59:33.108Z,100312.59
2023-07-04T09:02:34.485Z,100312.84
2023-07-04T09:05:35.862Z,100311.38
2023-07-04T09:08:37.156Z,100316.34
2023-07-04T09:11:38.746Z,100308.94
2023-07-04T09:14:40.108Z,100315.66
2023-07-04T09:17:41.746Z,100312.53
2023-07-04T09:20:43.185Z,100310.78
2023-07-04T09:23:46.895Z,100318.28
2023-07-04T09:26:48.253Z,100312.63
2023-07-04T09:29:49.573Z,100316.97
2023-07-04T09:32:50.930Z,100306.25
2023-07-04T09:35:52.489Z,100311.38
2023-07-04T09:38:53.848Z,100307.31
2023-07-04T09:42:03.687Z,100306.72
2023-07-04T09:45:14.332Z,100308.53
2023-07-04T09:48:15.594Z,100314.88
2023-07-04T09:51:16.935Z,100297.81
2023-07-04T09:54:18.282Z,100314.44
2023-07-04T09:57:19.585Z,100304.16
2023-07-04T10:00:21.012Z,100295.34
2023-07-04T10:03:22.686Z,100289.19
2023-07-04T10:06:24.072Z,100285.09
2023-07-04T10:09:25.379Z,100305.84
2023-07-04T10:12:26.705Z,100290.63
2023-07-04T10:15:28.027Z,100297.91
2023-07-04T10:18:29.325Z,100288.28
2023-07-04T10:21:30.612Z,100298.66
2023-07-04T10:24:31.913Z,100284.41
2023-07-04T10:27:33.234Z,100273.53
2023-07-04T10:30:34.542Z,100281.63
2023-07-04T10:33:35.823Z,100286.03
2023-07-04T10:36:37.094Z,100278.59
2023-07-04T10:39:38.385Z,100279.81
2023-07-04T10:42:40.079Z,100277.31
2023-07-04T10:45:48.043Z,100286.34
2023-07-04T10:48:57.656Z,100284.63
2023-07-04T10:51:58.971Z,100288.81
2023-07-04T10:55:00.263Z,100284.59
2023-07-04T10:58:01.562Z,100283.69
2023-07-04T11:01:02.933Z,100279.09
2023-07-04T11:04:04.381Z,100273.03
2023-07-04T11:07:05.763Z,100279.13
2023-07-04T11:10:07.112Z,100269.44
2023-07-04T11:13:08.553Z,100284.41
2023-07-04T11:16:09.957Z,100272.75
2023-07-04T11:19:11.267Z,100272.78
2023-07-04T11:22:12.584Z,100267.47
2023-07-04T11:25:13.874Z,100268.78
2023-07-04T11:28:15.188Z,100255.56
2023-07-04T11:31:16.714Z,100255.88
2023-07-04T11:34:18.103Z,100259.44
2023-07-04T11:37:19.381Z,100255.78
2023-07-04T11:40:20.689Z,100250.84
2023-07-04T11:43:22.029Z,100258.72
2023-07-04T11:46:23.497Z,100254.53
2023-07-04T11:49:24.848Z,100256.97
2023-07-04T11:52:26.161Z,100237.44
2023-07-04T11:55:27.460Z,100264.03
2023-07-04T11:58:28.749Z,100250.75
2023-07-04T12:01:30.059Z,100260.69
2023-07-04T12:04:31.481Z,100250.44
2023-07-04T12:07:32.780Z,100243.28
2023-07-04T12:10:34.161Z,100223.00
2023-07-04T12:13:35.549Z,100233.91
2023-07-04T12:16:36.876Z,100240.09
2023-07-04T12:19:38.167Z,100231.66
2023-07-04T12:22:39.474Z,100240.31
2023-07-04T12:25:40.947Z,100224.81
2023-07-04T12:28:42.276Z,100216.22
2023-07-04T12:31:43.633Z,100212.97
2023-07-04T12:37:49.134Z,100216.00
2023-07-04T12:40:50.506Z,100213.66
2023-07-04T12:50:03.099Z,100222.53
2023-07-04T12:53:05.247Z,100201.78
2023-07-04T12:56:06.584Z,100210.28
2023-07-04T12:59:07.877Z,100201.06
2023-07-04T13:02:09.208Z,100194.78
2023-07-04T13:05:10.555Z,100197.88
2023-07-04T13:08:11.889Z,100199.31
2023-07-04T13:11:13.222Z,100186.31
2023-07-04T13:14:14.579Z,100197.44
2023-07-04T13:17:15.901Z,100197.78
2023-07-04T13:20:17.251Z,100197.88
2023-07-04T13:26:22.893Z,100213.31
2023-07-04T13:35:32.646Z,100178.81
2023-07-04T13:41:38.158Z,100173.91
2023-07-04T13:47:43.755Z,100171.13
2023-07-04T13:50:45.060Z,100160.63
2023-07-04T13:53:46.403Z,100153.78
2023-07-04T13:56:47.776Z,100157.44
2023-07-04T13:59:49.069Z,100148.78
2023-07-04T14:05:58.405Z,100152.09
2023-07-04T14:09:00.387Z,100158.72
2023-07-04T14:12:01.716Z,100152.94
2023-07-04T14:21:11.551Z,100145.50
2023-07-04T14:24:12.918Z,100142.97
2023-07-04T14:27:20.769Z,100145.78
2023-07-04T14:30:31.624Z,100143.34
2023-07-04T14:33:33.072Z,100127.59
2023-07-04T14:36:34.463Z,100128.94
2023-07-04T14:39:35.822Z,100122.72
2023-07-04T14:42:48.666Z,100113.31
2023-07-04T14:45:50.405Z,100112.06
2023-07-04T14:48:51.802Z,100111.00
2023-07-04T14:51:53.168Z,100118.28
2023-07-04T14:54:56.219Z,100109.47
2023-07-04T14:57:57.753Z,100101.47
2023-07-04T15:00:59.308Z,100100.19
2023-07-04T15:04:00.802Z,100095.38
2023-07-04T15:07:02.240Z,100107.03
2023-07-04T15:10:03.559Z,100102.88
2023-07-04T15:13:04.858Z,100100.59
2023-07-04T15:16:06.281Z,100097.66
2023-07-04T15:19:07.668Z,100102.75
2023-07-04T15:22:09.046Z,100091.78
2023-07-04T15:25:10.355Z,100082.75
2023-07-04T15:28:11.680Z,100083.63
2023-07-04T15:31:13.099Z,100093.91
2023-07-04T15:34:14.445Z,100084.44
2023-07-04T15:37:15.804Z,100072.22
2023-07-04T15:40:17.182Z,100053.59
2023-07-04T15:43:18.526Z,100068.28
2023-07-04T15:46:19.929Z,100060.50
2023-07-04T15:49:21.312Z,100061.31
2023-07-04T15:52:24.207Z,100061.56
2023-07-04T15:55:26.777Z,100056.56
2023-07-04T15:58:28.147Z,100051.84
2023-07-04T16:01:29.473Z,100054.31
2023-07-04T16:04:30.820Z,100050.75
2023-07-04T16:07:32.153Z,100043.16
2023-07-04T16:10:33.476Z,100049.34
2023-07-04T16:13:34.794Z,100038.41
2023-07-04T16:16:36.190Z,100047.66
2023-07-04T16:19:37.524Z,100041.63
2023-07-04T16:22:38.837Z,100037.34
2023-07-04T16:25:40.252Z,100047.03
2023-07-04T16:28:41.565Z,100034.06
2023-07-04T16:31:42.935Z,100034.06
2023-07-04T16:34:44.330Z,100030.59
2023-07-04T16:37:45.684Z,100028.31
2023-07-04T16:40:47.068Z,100032.44
2023-07-04T16:43:48.412Z,100029.78
2023-07-04T16:46:49.875Z,100026.66
2023-07-04T16:49:51.215Z,100021.28
2023-07-04T16:52:52.612Z,100015.13
2023-07-04T16:55:54.045Z,100008.09
2023-07-04T16:58:55.544Z,100018.19
2023-07-04T17:01:58.653Z,100006.44
2023-07-04T17:05:01.422Z,100012.63
2023-07-04T17:08:02.770Z,100004.38
2023-07-04T17:11:04.104Z,100007.69
2023-07-04T17:14:05.551Z,100002.34
2023-07-04T17:17:06.954Z,99994.09
2023-07-04T17:20:08.417Z,100002.75
2023-07-04T17:23:09.784Z,99990.38
2023-07-04T17:26:11.095Z,99989.13
2023-07-04T17:29:12.443Z,99989.97
2023-07-04T17:32:13.762Z,99977.19
2023-07-04T17:35:15.161Z,99970.78
2023-07-04T17:38:16.526Z,99971.41
2023-07-04T17:41:17.851Z,99969.78
2023-07-04T17:44:19.195Z,99969.56
2023-07-04T17:47:21.669Z,99959.69
2023-07-04T17:50:22.992Z,99958.81
2023-07-04T17:53:30.263Z,99962.34
2023-07-04T17:56:32.852Z,99956.16
2023-07-04T17:59:34.217Z,99958.81
2023-07-04T18:02:35.536Z,99953.69
2023-07-04T18:05:38.771Z,99951.63
2023-07-04T18:08:40.119Z,99950.59
2023-07-04T18:11:41.401Z,99949.78
2023-07-04T18:14:42.737Z,99944.41
2023-07-04T18:17:44.058Z,99942.13
2023-07-04T18:20:45.394Z,99938.41
2023-07-04T18:23:46.633Z,99938.22
2023-07-04T18:26:47.946Z,99937.38
2023-07-04T18:29:51.255Z,99931.81
2023-07-04T18:32:52.656Z,99933.50
2023-07-04T18:35:54.057Z,99933.50
2023-07-04T18:38:55.383Z,99927.28
2023-07-04T18:41:56.655Z,99928.94
2023-07-04T18:44:59.980Z,99926.47
2023-07-04T18:48:01.453Z,99920.09
2023-07-04T18:51:04.033Z,99922.75
2023-07-04T18:54:05.445Z,99926.06
2023-07-04T18:57:06.756Z,99918.03
2023-07-04T19:00:10.487Z,99920.69
2023-07-04T19:03:12.079Z,99916.97
2023-07-04T19:06:13.529Z,99922.34
2023-07-04T19:09:14.798Z,99919.47
2023-07-04T19:12:16.080Z,99917.81
2023-07-04T19:15:17.615Z,99918.84
2023-07-04T19:18:18.974Z,99927.69
2023-07-04T19:21:20.292Z,99924.00
2023-07-04T19:24:21.681Z,99935.56
2023-07-04T19:27:23.033Z,99936.16
2023-07-04T19:30:24.329Z,99937.41
2023-07-04T19:33:25.647Z,99943.78
2023-07-04T19:36:29.137Z,99947.09
2023-07-04T19:39:32.792Z,99947.94
2023-07-04T19:42:34.142Z,99961.13
2023-07-04T19:45:35.452Z,99955.38
2023-07-04T19:48:37.770Z,99962.16
2023-07-04T19:51:40.017Z,99958.25
2023-07-04T19:54:41.303Z,99956.41
2023-07-04T19:57:42.593Z,99965.28
2023-07-04T20:00:43.914Z,99967.97
2023-07-04T20:03:46.361Z,99965.91
2023-07-04T20:06:47.687Z,99970.63
2023-07-04T20:09:50.396Z,99968.56
2023-07-04T20:12:51.747Z,99961.16
2023-07-04T20:15:53.318Z,99964.88
2023-07-04T20:18:54.894Z,99964.06
2023-07-04T20:21:56.157Z,99964.47
2023-07-04T20:24:57.420Z,99959.53
2023-07-04T20:28:01.426Z,99961.19
2023-07-04T20:31:03.763Z,99953.13
2023-07-04T20:34:05.111Z,99962.63
2023-07-04T20:37:07.538Z,99955.19
2023-07-04T20:40:08.998Z,99950.84
2023-07-04T20:43:12.314Z,99943.84
2023-07-04T20:46:16.170Z,99952.91
2023-07-04T20:49:17.653Z,99946.53
2023-07-04T20:52:18.968Z,99936.00
2023-07-04T20:55:20.416Z,99939.31
2023-07-04T20:58:23.872Z,99936.00
2023-07-04T21:01:25.313Z,99936.63
2023-07-04T21:04:26.710Z,99930.63
2023-07-04T21:07:28.008Z,99927.97
2023-07-04T21:10:29.312Z,99929.00
2023-07-04T21:13:30.652Z,99929.19
2023-07-04T21:16:32.052Z,99930.03
2023-07-04T21:19:33.434Z,99930.81
2023-07-04T21:22:34.778Z,99935.53
2023-07-04T21:25:36.054Z,99925.63
2023-07-04T21:28:38.561Z,99922.13
2023-07-04T21:31:40.098Z,99928.34
2023-07-04T21:34:41.508Z,99917.41
2023-07-04T21:37:42.817Z,99906.44
2023-07-04T21:40:44.086Z,99908.91
2023-07-04T21:43:45.463Z,99906.25
2023-07-04T21:46:46.864Z,99901.91
2023-07-04T21:49:48.151Z,99902.56
2023-07-04T21:52:49.550Z,99896.38
2023-07-04T21:55:50.976Z,99892.47
2023-07-04T21:58:53.621Z,99889.59
2023-07-04T22:01:54.990Z,99903.00
2023-07-04T22:04:56.457Z,99903.00
2023-07-04T22:07:57.812Z,99889.59
2023-07-04T22:10:59.209Z,99887.53
2023-07-04T22:14:00.730Z,99887.31
2023-07-04T22:17:02.227Z,99889.38
2023-07-04T22:20:03.595Z,99882.38
2023-07-04T22:23:05.067Z,99882.97
2023-07-04T22:26:06.487Z,99882.56
2023-07-04T22:29:07.849Z,99870.59
2023-07-04T22:32:10.247Z,99860.72
2023-07-04T22:35:11.629Z,99865.03
2023-07-04T22:38:14.131Z,99860.72
2023-07-04T22:41:15.526Z,99859.88
2023-07-04T22:44:19.048Z,99865.22
2023-07-04T22:47:20.397Z,99867.53
2023-07-04T22:50:21.766Z,99864.00
2023-07-04T22:53:25.108Z,99867.91
2023-07-04T22:56:26.462Z,99867.09
2023-07-04T22:59:31.253Z,99865.84
2023-07-04T23:02:33.909Z,99872.47
2023-07-04T23:05:35.395Z,99872.22
2023-07-04T23:08:36.762Z,99865.03
2023-07-04T23:11:38.128Z,99873.28
2023-07-04T23:14:39.444Z,99871.22
2023-07-04T23:17:40.967Z,99868.72
2023-07-04T23:20:42.343Z,99856.78
2023-07-04T23:23:46.989Z,99842.75
2023-07-04T23:26:48.371Z,99857.63
2023-07-04T23:29:51.790Z,99856.16
2023-07-04T23:32:53.173Z,99845.03
2023-07-04T23:35:54.810Z,99841.50
2023-07-04T23:38:56.278Z,99829.31
2023-07-04T23:41:58.737Z,99832.84
2023-07-04T23:45:00.093Z,99840.69
2023-07-04T23:48:08.057Z,99835.75
2023-07-04T23:51:09.450Z,99834.50
2023-07-04T23:54:10.826Z,99816.16
2023-07-04T23:57:12.218Z,99820.66
